createdAt,value
2023-01-30T00:00:06.595Z,7.25
2023-01-30T00:02:33.361Z,7.30
2023-01-30T00:05:03.508Z,7.35
2023-01-30T00:07:30.343Z,7.78
2023-01-30T00:09:57.031Z,6.40
2023-01-30T00:12:23.869Z,6.50
2023-01-30T00:14:51.133Z,6.15
2023-01-30T00:17:18.024Z,6.60
2023-01-30T00:19:44.746Z,7.05
2023-01-30T00:22:13.139Z,6.22
2023-01-30T00:24:40.368Z,6.05
2023-01-30T00:27:08.337Z,6.30
2023-01-30T00:29:36.798Z,6.80
2023-01-30T00:32:04.038Z,6.70
2023-01-30T00:34:31.045Z,6.65
2023-01-30T00:37:07.786Z,6.07
2023-01-30T00:39:36.594Z,7.22
2023-01-30T00:42:03.684Z,7.38
2023-01-30T00:44:30.521Z,7.25
2023-01-30T00:46:57.316Z,6.63
2023-01-30T00:49:27.087Z,6.90
2023-01-30T00:51:54.553Z,6.75
2023-01-30T00:54:21.531Z,7.10
2023-01-30T00:56:51.027Z,6.80
2023-01-30T00:59:18.040Z,7.32
2023-01-30T01:01:44.927Z,7.95
2023-01-30T01:04:11.800Z,6.75
2023-01-30T01:06:39.212Z,7.35
2023-01-30T01:09:06.858Z,7.38
2023-01-30T01:11:33.738Z,7.15
2023-01-30T01:14:04.607Z,7.30
2023-01-30T01:16:32.630Z,7.18
2023-01-30T01:19:00.370Z,7.20
2023-01-30T01:21:27.432Z,7.20
2023-01-30T01:23:56.288Z,6.90
2023-01-30T01:26:23.980Z,7.63
2023-01-30T01:28:54.979Z,6.90
2023-01-30T01:31:27.042Z,7.72
2023-01-30T01:33:53.864Z,7.63
2023-01-30T01:36:51.798Z,8.35
2023-01-30T01:39:12.464Z,8.65
2023-01-30T01:41:39.508Z,8.38
2023-01-30T01:44:08.443Z,9.18
2023-01-30T01:46:44.036Z,7.95
2023-01-30T01:49:15.571Z,8.40
2023-01-30T01:51:48.938Z,7.03
2023-01-30T01:54:19.148Z,6.93
2023-01-30T01:56:48.585Z,8.00
2023-01-30T01:59:22.432Z,7.20
2023-01-30T02:01:53.049Z,6.63
2023-01-30T02:04:20.612Z,7.60
2023-01-30T02:06:48.324Z,8.00
2023-01-30T02:09:15.091Z,7.75
2023-01-30T02:11:50.882Z,7.13
2023-01-30T02:14:20.055Z,7.18
2023-01-30T02:16:47.539Z,7.57
2023-01-30T02:19:32.363Z,6.82
2023-01-30T02:22:22.576Z,7.70
2023-01-30T02:25:31.574Z,6.88
2023-01-30T02:28:26.756Z,7.20
2023-01-30T02:31:32.923Z,7.13
2023-01-30T02:34:16.347Z,6.50
2023-01-30T02:36:52.135Z,6.72
2023-01-30T02:39:26.886Z,7.00
2023-01-30T02:42:00.707Z,5.70
2023-01-30T02:44:33.285Z,6.60
2023-01-30T02:47:06.635Z,7.10
2023-01-30T02:49:38.956Z,6.90
2023-01-30T02:52:17.341Z,6.82
2023-01-30T02:54:45.399Z,6.28
2023-01-30T02:57:27.051Z,6.70
2023-01-30T02:59:59.097Z,6.75
2023-01-30T03:02:59.487Z,5.55
2023-01-30T03:05:40.564Z,7.07
2023-01-30T03:08:21.265Z,5.75
2023-01-30T03:10:54.735Z,5.90
2023-01-30T03:13:42.530Z,6.20
2023-01-30T03:16:13.897Z,5.68
2023-01-30T03:21:09.932Z,4.95
2023-01-30T03:23:36.748Z,5.07
2023-01-30T03:26:06.084Z,4.78
2023-01-30T03:28:34.476Z,4.43
2023-01-30T03:31:01.359Z,6.05
2023-01-30T03:33:28.585Z,4.75
2023-01-30T03:35:58.243Z,5.47
2023-01-30T03:38:26.791Z,4.20
2023-01-30T03:40:53.825Z,3.75
2023-01-30T03:43:21.608Z,4.20
2023-01-30T03:45:49.862Z,3.80
2023-01-30T03:48:16.689Z,4.05
2023-01-30T03:50:44.059Z,4.13
2023-01-30T03:53:12.386Z,4.75
2023-01-30T03:55:39.268Z,4.32
2023-01-30T03:58:06.125Z,4.43
2023-01-30T04:00:33.436Z,4.80
2023-01-30T04:03:00.568Z,4.55
2023-01-30T04:05:30.058Z,4.57
2023-01-30T04:07:57.871Z,4.82
2023-01-30T04:10:26.934Z,4.13
2023-01-30T04:12:54.256Z,5.35
2023-01-30T04:15:21.196Z,4.20
2023-01-30T04:17:48.407Z,4.65
2023-01-30T04:20:16.444Z,4.30
2023-01-30T04:22:48.902Z,5.13
2023-01-30T04:25:17.070Z,5.60
2023-01-30T04:27:45.659Z,3.10
2023-01-30T04:30:12.885Z,3.83
2023-01-30T04:32:41.387Z,5.63
2023-01-30T04:35:08.881Z,4.75
2023-01-30T04:37:36.205Z,4.82
2023-01-30T04:40:03.807Z,5.20
2023-01-30T04:42:30.617Z,4.10
2023-01-30T04:45:00.283Z,4.38
2023-01-30T04:47:28.325Z,5.00
2023-01-30T04:49:55.447Z,4.72
2023-01-30T04:52:22.964Z,4.38
2023-01-30T04:54:50.033Z,5.28
2023-01-30T04:57:16.860Z,4.38
2023-01-30T04:59:43.884Z,4.38
2023-01-30T05:02:12.200Z,5.38
2023-01-30T05:04:40.057Z,4.60
2023-01-30T05:07:06.988Z,4.93
2023-01-30T05:09:34.310Z,3.83
2023-01-30T05:12:03.224Z,4.57
2023-01-30T05:14:32.401Z,5.22
2023-01-30T05:16:59.304Z,5.45
2023-01-30T05:19:29.650Z,4.07
2023-01-30T05:21:57.596Z,6.45
2023-01-30T05:24:24.568Z,5.30
2023-01-30T05:26:51.579Z,4.63
2023-01-30T05:29:20.763Z,5.00
2023-01-30T05:31:47.721Z,4.70
2023-01-30T05:34:14.964Z,5.47
2023-01-30T05:36:43.226Z,6.07
2023-01-30T05:39:10.182Z,4.78
2023-01-30T05:41:37.158Z,4.97
2023-01-30T05:44:05.391Z,4.57
2023-01-30T05:46:32.352Z,5.00
2023-01-30T05:48:59.114Z,4.72
2023-01-30T05:51:30.147Z,5.18
2023-01-30T05:53:58.513Z,4.07
2023-01-30T05:56:51.967Z,4.68
2023-01-30T05:59:18.859Z,4.32
2023-01-30T06:01:47.765Z,4.50
2023-01-30T06:04:17.004Z,4.35
2023-01-30T06:06:43.817Z,4.25
2023-01-30T06:09:12.205Z,4.20
2023-01-30T06:11:39.364Z,4.38
2023-01-30T06:14:06.457Z,5.22
2023-01-30T06:16:33.523Z,4.28
2023-01-30T06:19:00.698Z,5.63
2023-01-30T06:21:27.699Z,4.35
2023-01-30T06:23:54.899Z,4.85
2023-01-30T06:26:23.043Z,4.90
2023-01-30T06:28:51.181Z,4.65
2023-01-30T06:31:18.028Z,4.93
2023-01-30T06:33:48.051Z,4.85
2023-01-30T06:36:15.295Z,5.65
2023-01-30T06:38:42.043Z,5.38
2023-01-30T06:41:09.999Z,4.57
2023-01-30T06:43:38.899Z,4.30
2023-01-30T06:46:07.052Z,4.63
2023-01-30T06:48:34.008Z,4.18
2023-01-30T06:51:00.942Z,5.47
2023-01-30T06:53:29.015Z,5.28
2023-01-30T06:55:59.354Z,5.13
2023-01-30T06:58:26.755Z,4.53
2023-01-30T07:00:57.111Z,4.28
2023-01-30T07:03:24.227Z,5.17
2023-01-30T07:05:51.315Z,5.55
2023-01-30T07:08:19.139Z,4.88
2023-01-30T07:10:47.075Z,4.70
2023-01-30T07:13:24.348Z,5.35
2023-01-30T07:16:04.751Z,5.32
2023-01-30T07:18:31.985Z,5.32
2023-01-30T07:21:01.494Z,4.50
2023-01-30T07:23:28.404Z,4.40
2023-01-30T07:26:03.214Z,5.35
2023-01-30T07:28:31.633Z,5.35
2023-01-30T07:31:01.472Z,4.22
2023-01-30T07:33:28.433Z,5.28
2023-01-30T07:35:55.751Z,4.80
2023-01-30T07:38:24.906Z,5.38
2023-01-30T07:40:51.700Z,4.32
2023-01-30T07:43:18.644Z,4.47
2023-01-30T07:45:51.713Z,5.18
2023-01-30T07:48:20.227Z,5.93
2023-01-30T07:50:48.983Z,4.35
2023-01-30T07:53:17.706Z,4.43
2023-01-30T07:55:45.217Z,4.88
2023-01-30T07:58:16.172Z,4.63
2023-01-30T08:00:47.225Z,4.88
2023-01-30T08:03:26.890Z,5.07
2023-01-30T08:05:55.260Z,5.20
2023-01-30T08:08:28.315Z,5.22
2023-01-30T08:10:55.210Z,6.30
2023-01-30T08:13:22.182Z,5.07
2023-01-30T08:15:51.625Z,5.80
2023-01-30T08:18:18.897Z,4.70
2023-01-30T08:20:46.201Z,5.45
2023-01-30T08:23:14.644Z,6.30
2023-01-30T08:25:41.621Z,4.43
2023-01-30T08:28:08.845Z,5.00
2023-01-30T08:30:41.007Z,5.45
2023-01-30T08:33:07.797Z,4.82
2023-01-30T08:35:37.120Z,5.28
2023-01-30T08:38:06.086Z,5.60
2023-01-30T08:40:34.258Z,5.47
2023-01-30T08:43:01.170Z,5.93
2023-01-30T08:45:36.511Z,4.53
2023-01-30T08:48:06.195Z,4.47
2023-01-30T08:50:33.657Z,5.65
2023-01-30T08:53:04.187Z,6.13
2023-01-30T08:55:31.258Z,5.30
2023-01-30T08:57:59.464Z,4.30
2023-01-30T09:00:27.200Z,4.68
2023-01-30T09:02:54.329Z,5.78
2023-01-30T09:05:21.131Z,5.15
2023-01-30T09:07:47.887Z,5.57
2023-01-30T09:10:17.036Z,4.78
2023-01-30T09:12:44.425Z,5.50
2023-01-30T09:15:12.867Z,4.57
2023-01-30T09:17:42.878Z,4.97
2023-01-30T09:20:11.174Z,4.47
2023-01-30T09:22:39.506Z,4.75
2023-01-30T09:25:07.435Z,4.25
2023-01-30T09:27:34.323Z,5.28
2023-01-30T09:30:03.441Z,4.47
2023-01-30T09:32:31.911Z,5.20
2023-01-30T09:34:59.007Z,6.47
2023-01-30T09:37:25.871Z,4.75
2023-01-30T09:39:54.397Z,5.75
2023-01-30T09:42:38.611Z,7.07
2023-01-30T09:45:45.385Z,5.20
2023-01-30T09:48:20.516Z,5.45
2023-01-30T09:51:04.892Z,5.30
2023-01-30T09:53:39.602Z,6.18
2023-01-30T09:56:06.486Z,6.13
2023-01-30T09:58:46.070Z,5.63
2023-01-30T10:01:20.740Z,5.07
2023-01-30T10:04:02.507Z,6.63
2023-01-30T10:06:43.366Z,5.00
2023-01-30T10:09:17.323Z,4.90
2023-01-30T10:11:57.895Z,5.28
2023-01-30T10:14:55.915Z,5.33
2023-01-30T10:17:43.374Z,4.53
2023-01-30T10:20:28.633Z,4.63
2023-01-30T10:23:07.991Z,5.32
2023-01-30T10:25:42.657Z,6.38
2023-01-30T10:28:22.626Z,5.45
2023-01-30T10:30:53.163Z,6.07
2023-01-30T10:33:25.498Z,5.75
2023-01-30T11:35:48.461Z,1.08
2023-01-30T11:38:23.077Z,2.08
2023-01-30T11:41:01.371Z,2.53
2023-01-30T11:43:28.813Z,1.63
2023-01-30T11:45:55.853Z,1.55
2023-01-30T11:49:01.473Z,2.58
2023-01-30T11:51:16.721Z,2.17
2023-01-30T11:53:47.343Z,2.00
2023-01-30T11:56:22.628Z,2.40
2023-01-30T11:58:57.164Z,2.42
2023-01-30T12:01:27.155Z,2.40
2023-01-30T12:03:57.072Z,3.45
2023-01-30T12:06:25.501Z,3.70
2023-01-30T12:08:54.916Z,4.18
2023-01-30T12:11:28.126Z,6.15
2023-01-30T12:14:05.125Z,4.03
2023-01-30T12:16:46.552Z,3.60
2023-01-30T12:19:26.341Z,3.50
2023-01-30T12:22:00.393Z,3.47
2023-01-30T12:24:33.520Z,3.13
2023-01-30T12:27:04.596Z,2.65
2023-01-30T12:29:36.455Z,2.63
2023-01-30T12:32:31.362Z,2.40
2023-01-30T12:34:58.419Z,3.08
2023-01-30T12:37:50.236Z,2.55
2023-01-30T12:40:32.559Z,3.03
2023-01-30T12:43:25.758Z,3.00
2023-01-30T12:46:08.238Z,3.35
2023-01-30T12:52:07.767Z,4.20
2023-01-30T12:54:51.737Z,3.90
2023-01-30T12:57:26.783Z,3.55
2023-01-30T13:00:07.977Z,3.67
2023-01-30T13:02:51.054Z,3.85
2023-01-30T13:05:31.189Z,4.28
2023-01-30T13:08:10.374Z,4.70
2023-01-30T13:10:45.285Z,4.13
2023-01-30T13:13:21.689Z,4.70
2023-01-30T13:15:58.097Z,4.78
2023-01-30T13:18:32.766Z,5.43
2023-01-30T13:21:06.713Z,5.13
2023-01-30T13:23:44.911Z,4.68
2023-01-30T13:26:15.275Z,5.13
2023-01-30T13:28:46.706Z,5.90
2023-01-30T13:33:44.804Z,6.10
2023-01-30T13:36:16.631Z,6.28
2023-01-30T13:38:54.532Z,6.22
2023-01-30T13:41:23.052Z,6.85
2023-01-30T13:43:54.459Z,5.82
2023-01-30T13:46:26.737Z,5.40
2023-01-30T13:49:05.897Z,5.80
2023-01-30T13:51:45.112Z,5.32
2023-01-30T13:54:28.993Z,6.13
2023-01-30T13:57:01.204Z,5.55
2023-01-30T13:59:56.669Z,6.50
2023-01-30T14:02:25.531Z,5.32
2023-01-30T14:05:06.765Z,6.00
2023-01-30T14:07:39.320Z,5.38
2023-01-30T14:10:14.962Z,5.78
2023-01-30T14:12:44.411Z,5.25
2023-01-30T14:15:25.964Z,5.57
2023-01-30T14:20:32.864Z,6.35
2023-01-30T14:23:01.594Z,5.47
2023-01-30T14:25:48.059Z,4.88
2023-01-30T14:28:47.942Z,5.13
2023-01-30T14:31:50.973Z,5.22
2023-01-30T14:35:05.466Z,6.47
2023-01-30T14:38:12.124Z,4.72
2023-01-30T14:40:48.573Z,5.15
2023-01-30T14:43:52.327Z,4.10
2023-01-30T14:46:57.856Z,5.47
2023-01-30T14:49:31.079Z,4.85
2023-01-30T14:51:58.216Z,6.45
2023-01-30T14:54:44.540Z,6.88
2023-01-30T14:57:24.063Z,5.50
2023-01-30T15:00:13.410Z,5.60
2023-01-30T15:02:44.385Z,5.20
2023-01-30T15:05:14.992Z,4.95
2023-01-30T15:07:45.474Z,5.97
2023-01-30T15:10:24.388Z,5.33
2023-01-30T15:13:15.025Z,6.10
2023-01-30T15:15:51.898Z,4.95
2023-01-30T15:18:36.123Z,5.63
2023-01-30T15:21:25.185Z,5.70
2023-01-30T15:24:21.449Z,4.85
2023-01-30T15:27:01.747Z,5.45
2023-01-30T15:29:58.245Z,5.55
2023-01-30T15:32:27.999Z,6.40
2023-01-30T15:34:57.615Z,5.63
2023-01-30T15:37:30.699Z,4.65
2023-01-30T15:40:23.672Z,6.15
2023-01-30T15:42:57.082Z,6.25
2023-01-30T15:45:39.788Z,5.88
2023-01-30T15:48:35.815Z,6.20
2023-01-30T15:51:03.776Z,5.57
2023-01-30T15:53:34.316Z,7.15
2023-01-30T15:56:03.336Z,7.57
2023-01-30T15:58:31.265Z,6.82
2023-01-30T16:01:00.398Z,6.47
2023-01-30T16:03:31.813Z,6.55
2023-01-30T16:08:27.878Z,6.18
2023-01-30T16:10:55.868Z,5.13
2023-01-30T16:13:24.169Z,5.25
2023-01-30T16:15:56.449Z,4.90
2023-01-30T16:18:33.220Z,4.00
2023-01-30T16:21:04.758Z,5.65
2023-01-30T16:23:35.652Z,6.57
2023-01-30T16:26:03.498Z,4.38
2023-01-30T16:28:31.907Z,5.18
2023-01-30T16:31:00.932Z,5.10
2023-01-30T16:33:29.880Z,4.80
2023-01-30T16:35:56.944Z,5.50
2023-01-30T16:38:34.800Z,5.13
2023-01-30T16:41:01.808Z,4.97
2023-01-30T16:43:30.271Z,4.88
2023-01-30T16:46:30.161Z,4.75
2023-01-30T16:49:04.755Z,4.40
2023-01-30T16:51:32.447Z,3.83
2023-01-30T16:54:02.347Z,4.38
2023-01-30T16:56:32.885Z,3.95
2023-01-30T16:59:01.497Z,4.82
2023-01-30T17:01:40.406Z,5.43
2023-01-30T17:04:18.755Z,4.07
2023-01-30T17:06:54.305Z,4.82
2023-01-30T17:09:40.725Z,4.25
2023-01-30T17:12:36.092Z,4.65
2023-01-30T17:15:31.649Z,6.47
2023-01-30T17:18:00.015Z,4.93
2023-01-30T17:20:36.262Z,5.13
2023-01-30T17:23:09.491Z,5.95
2023-01-30T17:25:43.050Z,4.18
2023-01-30T17:28:17.130Z,4.97
2023-01-30T17:30:44.085Z,5.00
2023-01-30T17:33:10.802Z,5.75
2023-01-30T17:35:40.262Z,6.32
2023-01-30T17:38:07.186Z,5.13
2023-01-30T17:40:36.650Z,5.40
2023-01-30T17:43:05.651Z,5.82
2023-01-30T17:45:33.214Z,6.30
2023-01-30T17:48:00.027Z,5.93
2023-01-30T17:50:27.164Z,5.72
2023-01-30T17:52:58.259Z,7.07
2023-01-30T17:55:26.816Z,6.03
2023-01-30T17:57:53.773Z,5.15
2023-01-30T18:00:22.924Z,6.53
2023-01-30T18:02:49.758Z,5.55
2023-01-30T18:05:17.063Z,5.15
2023-01-30T18:07:46.829Z,6.00
2023-01-30T18:10:20.182Z,6.07
2023-01-30T18:12:47.086Z,5.65
2023-01-30T18:15:15.558Z,5.20
2023-01-30T18:17:47.321Z,5.30
2023-01-30T18:20:16.728Z,5.43
2023-01-30T18:22:43.864Z,5.75
2023-01-30T18:25:10.822Z,5.97
2023-01-30T18:27:39.450Z,5.40
2023-01-30T18:30:10.677Z,6.18
2023-01-30T18:32:52.161Z,5.65
2023-01-30T18:35:43.249Z,5.82
2023-01-30T18:38:10.289Z,6.15
2023-01-30T18:40:38.068Z,5.63
2023-01-30T18:43:06.304Z,6.15
2023-01-30T18:45:37.563Z,5.95
2023-01-30T18:50:31.575Z,6.45
2023-01-30T18:52:58.343Z,4.88
2023-01-30T18:55:25.554Z,5.00
2023-01-30T18:57:52.514Z,4.05
2023-01-30T19:00:22.673Z,4.93
2023-01-30T19:02:53.454Z,4.50
2023-01-30T19:05:20.921Z,4.93
2023-01-30T19:07:47.608Z,4.03
2023-01-30T19:10:14.490Z,3.85
2023-01-30T19:12:42.333Z,3.83
2023-01-30T19:15:10.192Z,3.75
2023-01-30T19:17:38.325Z,3.30
2023-01-30T19:20:06.671Z,3.90
2023-01-30T19:22:33.460Z,3.42
2023-01-30T19:25:00.378Z,4.50
2023-01-30T19:27:27.371Z,4.75
2023-01-30T19:29:54.120Z,5.53
2023-01-30T19:32:20.917Z,3.90
2023-01-30T19:34:50.160Z,5.32
2023-01-30T19:37:17.873Z,5.05
2023-01-30T19:39:44.792Z,4.57
2023-01-30T19:42:11.554Z,5.10
2023-01-30T19:44:39.408Z,4.32
2023-01-30T19:47:06.409Z,4.07
2023-01-30T19:49:35.821Z,4.53
2023-01-30T19:52:05.229Z,5.43
2023-01-30T19:54:32.139Z,4.15
2023-01-30T19:56:59.956Z,4.35
2023-01-30T19:59:26.782Z,4.95
2023-01-30T20:01:55.067Z,4.57
2023-01-30T20:04:21.809Z,5.00
2023-01-30T20:06:48.672Z,6.45
2023-01-30T20:09:17.994Z,4.50
2023-01-30T20:11:44.835Z,4.45
2023-01-30T20:14:12.205Z,4.70
2023-01-30T20:16:39.075Z,5.43
2023-01-30T20:19:10.993Z,4.68
2023-01-30T20:21:38.094Z,4.60
2023-01-30T20:24:06.314Z,5.60
2023-01-30T20:26:36.219Z,6.25
2023-01-30T20:29:05.274Z,5.38
2023-01-30T20:31:32.292Z,4.57
2023-01-30T20:34:01.620Z,5.13
2023-01-30T20:36:29.214Z,3.97
2023-01-30T20:38:56.897Z,4.63
2023-01-30T20:41:27.823Z,4.78
2023-01-30T20:43:57.124Z,5.32
2023-01-30T20:46:25.815Z,4.80
2023-01-30T20:48:54.706Z,4.57
2023-01-30T20:51:23.759Z,4.47
2023-01-30T20:53:52.958Z,5.13
2023-01-30T20:56:21.605Z,4.30
2023-01-30T20:58:48.692Z,4.80
2023-01-30T21:01:20.599Z,4.63
2023-01-30T21:03:49.860Z,5.25
2023-01-30T21:06:41.363Z,3.50
2023-01-30T21:09:05.947Z,4.20
2023-01-30T21:11:35.249Z,5.00
2023-01-30T21:14:02.166Z,4.75
2023-01-30T21:16:32.900Z,3.65
2023-01-30T21:19:03.876Z,5.05
2023-01-30T21:24:00.915Z,4.47
2023-01-30T21:26:30.848Z,3.95
2023-01-30T21:29:00.227Z,3.78
2023-01-30T21:31:29.924Z,4.10
2023-01-30T21:33:59.724Z,4.35
2023-01-30T21:36:27.148Z,5.55
2023-01-30T21:38:54.272Z,4.78
2023-01-30T21:41:24.510Z,5.13
2023-01-30T21:43:51.311Z,4.28
2023-01-30T21:46:18.262Z,4.40
2023-01-30T21:48:46.371Z,4.40
2023-01-30T21:51:15.076Z,5.38
2023-01-30T21:53:42.198Z,4.13
2023-01-30T21:56:09.940Z,4.15
2023-01-30T21:58:39.050Z,4.68
2023-01-30T22:01:07.575Z,4.57
2023-01-30T22:03:35.517Z,3.95
2023-01-30T22:06:02.453Z,3.67
2023-01-30T22:08:30.719Z,4.18
2023-01-30T22:11:06.540Z,5.28
2023-01-30T22:13:33.831Z,4.45
2023-01-30T22:16:02.476Z,4.68
2023-01-30T22:18:29.386Z,4.47
2023-01-30T22:21:01.509Z,4.75
2023-01-30T22:23:36.299Z,4.85
2023-01-30T22:26:04.112Z,4.95
2023-01-30T22:28:34.472Z,4.68
2023-01-30T22:31:03.324Z,3.67
2023-01-30T22:33:33.600Z,4.55
2023-01-30T22:36:00.876Z,4.07
2023-01-30T22:38:27.880Z,4.38
2023-01-30T22:41:04.190Z,4.18
2023-01-30T22:43:31.389Z,4.00
2023-01-30T22:46:00.712Z,3.78
2023-01-30T22:48:27.825Z,3.42
2023-01-30T22:51:02.486Z,3.63
2023-01-30T22:53:34.221Z,4.10
2023-01-30T22:56:04.198Z,3.65
2023-01-30T22:58:31.695Z,4.50
2023-01-30T23:01:07.122Z,3.38
2023-01-30T23:03:34.537Z,3.33
2023-01-30T23:06:02.867Z,3.30
2023-01-30T23:08:30.707Z,4.57
2023-01-30T23:10:58.623Z,3.05
2023-01-30T23:13:27.179Z,4.03
2023-01-30T23:15:54.163Z,3.35
2023-01-30T23:18:20.955Z,3.70
2023-01-30T23:20:50.309Z,3.80
2023-01-30T23:23:17.038Z,3.42
2023-01-30T23:25:46.837Z,3.47
2023-01-30T23:28:15.487Z,3.70
2023-01-30T23:30:44.399Z,3.17
2023-01-30T23:33:11.302Z,3.75
2023-01-30T23:35:38.052Z,4.13
2023-01-30T23:38:04.961Z,3.72
2023-01-30T23:40:31.642Z,4.25
2023-01-30T23:42:58.372Z,3.33
2023-01-30T23:45:27.829Z,3.15
2023-01-30T23:47:55.919Z,2.65
2023-01-30T23:50:25.038Z,3.20
2023-01-30T23:52:52.066Z,3.40
2023-01-30T23:55:20.345Z,3.30
2023-01-30T23:57:48.172Z,3.10
